Time;durP1;ratioP1;P1;durP2;ratioP2;P2;SDS_P1;SDS_P2;PMS_P1;PMS_P2;Temp;Humidity;BMP_temperature;BMP_pressure;BME280_temperature;BME280_humidity;BME280_pressure;Samples;Min_cycle;Max_cycle;Signal;HPM_P1;HPM_P2
2020/12/25 00:00:06;;;;;;;7.37;4.87;;;;;;;7.53;89.47;95411.28;5070788;28;20824;-69
2020/12/25 00:02:34;;;;;;;10.07;6.07;;;;;;;7.47;89.46;95422.72;5070655;28;20283;-72
2020/12/25 00:05:01;;;;;;;6.33;4.80;;;;;;;7.54;89.35;95422.41;5070698;28;20199;-71
2020/12/25 00:07:28;;;;;;;10.07;5.40;;;;;;;7.50;89.14;95429.97;5070628;28;20590;-70
2020/12/25 00:09:54;;;;;;;11.67;5.37;;;;;;;7.55;88.81;95424.72;5070514;28;20192;-71
2020/12/25 00:12:21;;;;;;;9.83;5.93;;;;;;;7.56;88.58;95423.69;5070759;28;20226;-71
2020/12/25 00:14:48;;;;;;;13.10;6.83;;;;;;;7.61;88.23;95425.44;5070470;28;20200;-71
2020/12/25 00:17:15;;;;;;;7.27;4.50;;;;;;;7.63;88.40;95416.34;5070475;28;20203;-71
2020/12/25 00:19:43;;;;;;;8.97;5.53;;;;;;;7.76;87.45;95412.34;5070882;28;20196;-71
2020/12/25 00:22:10;;;;;;;7.67;4.37;;;;;;;7.76;87.13;95417.53;5070583;28;20239;-69
2020/12/25 00:24:37;;;;;;;11.40;6.20;;;;;;;7.55;87.77;95423.97;5070434;28;20241;-70
2020/12/25 00:27:04;;;;;;;24.10;8.43;;;;;;;7.40;89.31;95434.47;5070320;28;20283;-71
2020/12/25 00:29:31;;;;;;;13.30;7.80;;;;;;;7.46;88.85;95444.47;5070267;28;20203;-71
2020/12/25 00:31:58;;;;;;;39.80;21.40;;;;;;;7.33;88.05;95447.69;5070363;28;20200;-70
2020/12/25 00:34:25;;;;;;;41.87;21.53;;;;;;;7.12;87.57;95441.19;5070146;28;20196;-66
2020/12/25 00:36:52;;;;;;;44.97;22.10;;;;;;;6.91;88.35;95436.19;5070064;28;20238;-71
2020/12/25 00:39:19;;;;;;;66.97;29.37;;;;;;;6.62;89.12;95412.16;5070058;28;20196;-72
2020/12/25 00:41:48;;;;;;;71.67;34.33;;;;;;;6.44;90.31;95417.94;5070284;28;20192;-72
2020/12/25 00:44:15;;;;;;;45.87;23.80;;;;;;;6.36;90.93;95424.47;5069851;28;20228;-69
2020/12/25 00:46:44;;;;;;;44.53;20.43;;;;;;;6.33;91.25;95413.88;5070023;28;20739;-71
2020/12/25 00:49:11;;;;;;;43.57;21.83;;;;;;;6.31;91.67;95432.22;5069106;28;20232;-71
2020/12/25 00:51:38;;;;;;;54.63;26.10;;;;;;;6.18;91.59;95434.63;5070077;28;20204;-70
2020/12/25 00:54:06;;;;;;;71.77;30.37;;;;;;;6.06;91.45;95440.09;5070042;28;20222;-70
2020/12/25 00:56:33;;;;;;;81.73;36.43;;;;;;;6.09;93.05;95438.78;5069920;28;20272;-71
2020/12/25 00:59:00;;;;;;;101.00;42.27;;;;;;;6.03;93.08;95433.66;5069904;28;20214;-72
2020/12/25 01:01:27;;;;;;;127.43;58.90;;;;;;;5.91;93.58;95438.38;5069907;28;20192;-72
2020/12/25 01:03:54;;;;;;;108.50;56.40;;;;;;;5.81;94.02;95435.03;5069954;28;20208;-72
2020/12/25 01:06:22;;;;;;;93.27;47.93;;;;;;;5.68;94.96;95427.88;5069851;28;20246;-72
2020/12/25 01:08:50;;;;;;;81.83;41.40;;;;;;;5.69;95.39;95432.75;5069643;28;20224;-69
2020/12/25 01:11:18;;;;;;;69.40;34.13;;;;;;;5.63;95.88;95426.06;5069763;28;20664;-71
2020/12/25 01:13:45;;;;;;;64.63;31.70;;;;;;;5.43;96.96;95426.16;5069734;28;20736;-71
2020/12/25 01:16:15;;;;;;;50.83;27.83;;;;;;;5.20;98.16;95425.66;5069884;28;20193;-70
2020/12/25 01:18:42;;;;;;;57.20;29.07;;;;;;;5.12;99.20;95426.22;5069847;28;20201;-70
2020/12/25 01:21:09;;;;;;;56.03;29.93;;;;;;;5.13;99.88;95427.72;5069790;28;20188;-70
2020/12/25 01:23:36;;;;;;;60.10;32.10;;;;;;;5.02;100.00;95426.22;5069615;28;20192;-71
2020/12/25 01:26:05;;;;;;;64.27;31.93;;;;;;;4.99;100.00;95426.72;5069759;28;20203;-70
2020/12/25 01:28:33;;;;;;;66.83;34.27;;;;;;;5.02;100.00;95421.06;5069843;28;20224;-71
2020/12/25 01:31:02;;;;;;;55.93;30.97;;;;;;;5.01;100.00;95422.09;5069872;28;20254;-70
2020/12/25 01:33:30;;;;;;;65.13;35.63;;;;;;;4.94;100.00;95415.66;5069527;28;20583;-70
2020/12/25 01:36:00;;;;;;;67.57;35.70;;;;;;;4.87;100.00;95413.34;5069513;28;20216;-69
2020/12/25 01:38:27;;;;;;;63.47;35.07;;;;;;;4.92;100.00;95410.78;5069706;28;20201;-70
2020/12/25 01:40:53;;;;;;;66.80;34.53;;;;;;;4.89;100.00;95406.13;5069857;28;20217;-65
2020/12/25 01:43:20;;;;;;;69.80;33.47;;;;;;;4.86;100.00;95405.88;5069128;28;20240;-70
2020/12/25 01:45:48;;;;;;;65.30;34.33;;;;;;;4.86;100.00;95406.66;5069814;28;20220;-68
2020/12/25 01:48:15;;;;;;;65.17;34.00;;;;;;;4.88;100.00;95402.00;5069509;28;20282;-70
2020/12/25 01:50:42;;;;;;;59.20;32.50;;;;;;;4.88;100.00;95401.25;5069376;28;20188;-69
2020/12/25 01:53:10;;;;;;;64.70;33.73;;;;;;;4.87;100.00;95404.84;5069803;28;20223;-69
2020/12/25 01:55:38;;;;;;;61.70;33.20;;;;;;;4.88;100.00;95402.00;5069608;28;20192;-68
2020/12/25 01:58:07;;;;;;;60.50;30.67;;;;;;;4.84;100.00;95398.41;5069537;28;20203;-69
2020/12/25 02:00:34;;;;;;;55.43;31.20;;;;;;;4.81;100.00;95398.16;5072315;28;20197;-69
2020/12/25 02:03:01;;;;;;;53.60;29.93;;;;;;;4.70;100.00;95402.53;5073225;28;20563;-70
2020/12/25 02:05:29;;;;;;;50.67;28.57;;;;;;;4.66;100.00;95407.44;5072951;28;20205;-70
2020/12/25 02:07:56;;;;;;;46.07;27.80;;;;;;;4.78;100.00;95404.63;5073114;28;20227;-70
2020/12/25 02:10:23;;;;;;;50.23;27.80;;;;;;;4.67;100.00;95408.22;5072868;28;20192;-69
2020/12/25 02:12:51;;;;;;;45.77;27.30;;;;;;;4.70;100.00;95400.75;5072851;28;20193;-68
2020/12/25 02:15:18;;;;;;;47.40;27.07;;;;;;;4.65;100.00;95402.53;5072753;28;20205;-70
2020/12/25 02:17:45;;;;;;;47.87;26.93;;;;;;;4.52;100.00;95400.50;5072668;28;20210;-70
2020/12/25 02:20:14;;;;;;;49.47;28.03;;;;;;;4.51;100.00;95398.94;5073134;28;20678;-70
2020/12/25 02:22:41;;;;;;;50.23;27.27;;;;;;;4.59;100.00;95406.13;5072585;28;20197;-70
2020/12/25 02:25:08;;;;;;;47.03;27.23;;;;;;;4.55;100.00;95405.88;5072713;28;20200;-70
2020/12/25 02:27:35;;;;;;;41.60;25.90;;;;;;;4.60;100.00;95398.16;5072503;28;20224;-69
2020/12/25 02:30:05;;;;;;;40.77;25.77;;;;;;;4.51;100.00;95409.22;5072450;28;20196;-69
2020/12/25 02:32:32;;;;;;;41.43;25.63;;;;;;;4.54;100.00;95396.63;5072482;28;20675;-69
2020/12/25 02:34:59;;;;;;;44.03;25.77;;;;;;;4.50;100.00;95398.16;5072720;28;20203;-69
2020/12/25 02:37:26;;;;;;;45.87;27.70;;;;;;;4.41;100.00;95398.94;5072140;28;20273;-69
2020/12/25 02:39:53;;;;;;;49.30;26.87;;;;;;;4.30;100.00;95400.72;5072420;28;20203;-69
2020/12/25 02:42:20;;;;;;;50.13;28.83;;;;;;;4.33;100.00;95392.50;5072265;28;20196;-69
2020/12/25 02:44:47;;;;;;;48.67;28.83;;;;;;;4.29;100.00;95386.31;5072187;28;20671;-69
2020/12/25 02:47:14;;;;;;;49.47;27.70;;;;;;;4.14;100.00;95379.34;5072135;28;20204;-69
2020/12/25 02:49:41;;;;;;;43.70;26.43;;;;;;;4.11;100.00;95374.72;5072209;28;20208;-69
2020/12/25 02:52:08;;;;;;;41.90;25.23;;;;;;;4.13;100.00;95374.47;5072285;28;20188;-69
2020/12/25 02:54:34;;;;;;;44.87;24.23;;;;;;;4.16;100.00;95377.31;5072213;28;20204;-69
2020/12/25 02:57:03;;;;;;;44.77;26.60;;;;;;;4.07;100.00;95373.69;5071986;28;20278;-68
2020/12/25 02:59:29;;;;;;;39.13;24.07;;;;;;;4.01;100.00;95361.09;5071900;28;20196;-69
2020/12/25 03:01:56;;;;;;;39.80;24.27;;;;;;;4.02;100.00;95372.91;5072140;28;20200;-69
2020/12/25 03:04:23;;;;;;;63.17;28.70;;;;;;;3.98;100.00;95380.38;5071843;28;20205;-69
2020/12/25 03:06:49;;;;;;;41.23;24.13;;;;;;;3.97;100.00;95368.53;5072065;28;20261;-69
2020/12/25 03:09:17;;;;;;;44.50;26.43;;;;;;;4.01;100.00;95374.72;5071674;28;20239;-69
2020/12/25 03:11:44;;;;;;;42.47;25.63;;;;;;;4.03;100.00;95369.31;5071000;28;20279;-69
2020/12/25 03:14:12;;;;;;;46.77;26.77;;;;;;;4.02;100.00;95371.13;5071615;28;20202;-69
2020/12/25 03:16:39;;;;;;;45.33;26.90;;;;;;;3.89;100.00;95372.38;5071596;28;20197;-69
2020/12/25 03:19:08;;;;;;;42.53;24.50;;;;;;;3.92;100.00;95376.25;5071518;28;20196;-69
2020/12/25 03:21:35;;;;;;;48.40;26.33;;;;;;;4.15;100.00;95375.75;5071650;28;20200;-69
2020/12/25 03:24:02;;;;;;;63.83;30.47;;;;;;;3.80;100.00;95367.97;5071610;28;20192;-68
2020/12/25 03:26:29;;;;;;;42.00;25.20;;;;;;;3.84;100.00;95364.63;5071549;28;20569;-69
2020/12/25 03:28:55;;;;;;;48.67;27.37;;;;;;;3.86;100.00;95362.59;5071348;28;20228;-69
2020/12/25 03:31:23;;;;;;;41.67;23.97;;;;;;;3.79;100.00;95348.44;5071594;28;20189;-69
2020/12/25 03:33:50;;;;;;;44.27;25.23;;;;;;;3.81;100.00;95356.66;5071188;28;20671;-69
2020/12/25 03:36:17;;;;;;;46.43;27.87;;;;;;;3.82;100.00;95345.38;5071284;28;20216;-69
2020/12/25 03:38:43;;;;;;;48.10;27.20;;;;;;;3.90;100.00;95342.28;5071097;28;20200;-69
2020/12/25 03:41:10;;;;;;;52.17;29.43;;;;;;;3.72;100.00;95340.22;5071054;28;20234;-69
2020/12/25 03:43:37;;;;;;;55.60;31.77;;;;;;;3.68;100.00;95331.47;5070802;28;20235;-70
2020/12/25 03:46:04;;;;;;;44.20;27.37;;;;;;;3.55;100.00;95344.78;5070932;28;20222;-69
2020/12/25 03:48:32;;;;;;;46.23;27.00;;;;;;;3.50;100.00;95347.31;5071006;28;20646;-69
2020/12/25 03:51:00;;;;;;;47.67;27.37;;;;;;;3.49;100.00;95346.56;5071026;28;20583;-67
2020/12/25 03:53:27;;;;;;;56.80;29.73;;;;;;;3.46;100.00;95340.13;5070958;28;20689;-70
2020/12/25 03:55:53;;;;;;;45.37;26.83;;;;;;;3.42;100.00;95336.53;5070841;28;20729;-69
2020/12/25 03:58:20;;;;;;;38.37;22.50;;;;;;;3.21;100.00;95342.59;5071240;28;20203;-67
2020/12/25 04:00:47;;;;;;;35.57;20.83;;;;;;;3.26;100.00;95336.72;5070720;28;20200;-69
2020/12/25 04:03:14;;;;;;;42.63;25.10;;;;;;;3.13;100.00;95353.34;5070790;28;20199;-68
2020/12/25 04:05:41;;;;;;;35.30;21.20;;;;;;;3.17;100.00;95344.13;5070653;28;20667;-70
2020/12/25 04:08:08;;;;;;;40.30;24.10;;;;;;;3.07;100.00;95338.94;5070540;28;20228;-69
2020/12/25 04:10:35;;;;;;;33.83;20.73;;;;;;;2.98;100.00;95348.13;5070550;28;20226;-68
2020/12/25 04:13:02;;;;;;;36.00;21.37;;;;;;;2.91;100.00;95342.44;5070704;28;20234;-68
2020/12/25 04:15:29;;;;;;;37.43;21.73;;;;;;;2.86;100.00;95356.03;5070582;28;20199;-68
2020/12/25 04:17:55;;;;;;;34.63;20.77;;;;;;;2.77;100.00;95352.38;5070587;28;20192;-68
2020/12/25 04:20:22;;;;;;;35.87;21.43;;;;;;;2.72;100.00;95356.69;5070486;28;20267;-68
2020/12/25 04:22:50;;;;;;;36.57;21.80;;;;;;;2.80;100.00;95353.66;5070273;28;20619;-68
2020/12/25 04:25:17;;;;;;;35.60;20.23;;;;;;;2.79;100.00;95341.88;5070807;28;20203;-69
2020/12/25 04:27:44;;;;;;;37.03;21.93;;;;;;;2.80;100.00;95343.41;5070197;28;20238;-68
2020/12/25 04:30:10;;;;;;;35.90;21.80;;;;;;;2.87;100.00;95343.97;5070585;28;20204;-69
2020/12/25 04:32:37;;;;;;;34.43;21.40;;;;;;;2.85;100.00;95346.00;5070387;28;20197;-69
2020/12/25 04:35:04;;;;;;;36.27;22.97;;;;;;;2.82;100.00;95347.28;5070247;28;20203;-68
2020/12/25 04:37:31;;;;;;;36.73;21.97;;;;;;;2.83;100.00;95364.22;5070218;28;20212;-65
2020/12/25 04:39:59;;;;;;;35.93;21.73;;;;;;;2.73;100.00;95353.91;5070182;28;20207;-69
2020/12/25 04:42:27;;;;;;;40.90;22.73;;;;;;;2.66;100.00;95357.69;5070089;28;20199;-69
2020/12/25 04:44:54;;;;;;;41.57;23.53;;;;;;;2.77;100.00;95349.03;5070415;28;20203;-69
2020/12/25 04:47:21;;;;;;;49.83;26.03;;;;;;;2.82;100.00;95346.50;5069984;28;20697;-69
2020/12/25 04:49:50;;;;;;;45.50;24.80;;;;;;;2.82;100.00;95354.97;5069991;28;20202;-68
2020/12/25 04:52:17;;;;;;;40.33;23.33;;;;;;;2.81;100.00;95355.22;5069967;28;20199;-69
2020/12/25 04:54:43;;;;;;;39.23;22.07;;;;;;;2.53;100.00;95353.75;5070098;28;20195;-69
2020/12/25 04:57:11;;;;;;;37.43;22.07;;;;;;;2.52;100.00;95359.91;5069880;28;20194;-69
2020/12/25 04:59:38;;;;;;;34.17;22.23;;;;;;;2.30;100.00;95364.31;5069985;28;20274;-68
2020/12/25 05:02:05;;;;;;;34.00;21.67;;;;;;;2.37;100.00;95360.56;5069846;28;20580;-68
2020/12/25 05:04:31;;;;;;;41.50;24.53;;;;;;;2.45;100.00;95357.53;5069766;28;20203;-68
2020/12/25 05:07:02;;;;;;;43.57;25.13;;;;;;;2.57;100.00;95365.84;5069803;28;20787;-67
2020/12/25 05:09:30;;;;;;;43.80;25.00;;;;;;;2.78;100.00;95360.84;5069744;28;20226;-68
2020/12/25 05:11:58;;;;;;;38.60;22.83;;;;;;;2.72;100.00;95365.19;5069930;28;20611;-68
2020/12/25 05:14:27;;;;;;;34.47;21.73;;;;;;;2.77;100.00;95367.00;5069896;28;20196;-69
2020/12/25 05:16:55;;;;;;;46.57;26.30;;;;;;;2.69;100.00;95370.03;5069599;28;20200;-68
2020/12/25 05:19:27;;;;;;;33.60;19.77;;;;;;;2.33;100.00;95353.59;5069623;28;20201;-68
2020/12/25 05:21:57;;;;;;;37.03;21.10;;;;;;;2.31;100.00;95374.34;5069810;28;20195;-68
2020/12/25 05:24:24;;;;;;;36.70;22.87;;;;;;;2.33;100.00;95374.88;5069764;28;20196;-68
2020/12/25 05:26:53;;;;;;;46.30;27.20;;;;;;;2.30;100.00;95365.09;5069651;28;20253;-67
2020/12/25 05:29:23;;;;;;;48.63;26.47;;;;;;;2.32;100.00;95352.06;5069602;28;20230;-67
2020/12/25 05:31:52;;;;;;;52.77;31.73;;;;;;;2.51;100.00;95371.94;5069783;28;20191;-68
2020/12/25 05:34:20;;;;;;;67.40;38.50;;;;;;;2.51;100.00;95354.00;5070724;28;20213;-68
2020/12/25 05:36:51;;;;;;;62.63;37.20;;;;;;;2.52;100.00;95363.25;5073607;28;20215;-68
2020/12/25 05:39:28;;;;;;;73.83;38.40;;;;;;;2.77;100.00;95361.88;5073384;28;20199;-68
2020/12/25 05:41:56;;;;;;;71.57;39.10;;;;;;;2.72;100.00;95365.19;5073362;28;20295;-69
2020/12/25 05:44:25;;;;;;;62.90;35.50;;;;;;;2.87;100.00;95364.50;5073113;28;20234;-68
2020/12/25 05:46:52;;;;;;;69.57;39.37;;;;;;;2.82;100.00;95367.81;5073212;28;20203;-67
2020/12/25 05:49:20;;;;;;;65.30;39.20;;;;;;;2.76;100.00;95362.88;5073206;28;20223;-66
2020/12/25 05:51:48;;;;;;;73.93;43.93;;;;;;;2.83;100.00;95355.75;5073159;28;20198;-68
2020/12/25 05:54:21;;;;;;;67.37;43.03;;;;;;;2.91;100.00;95366.31;5073183;28;20632;-69
2020/12/25 05:56:52;;;;;;;67.90;44.07;;;;;;;2.82;100.00;95365.25;5073385;28;20265;-63
2020/12/25 05:59:24;;;;;;;67.47;41.60;;;;;;;2.92;100.00;95362.75;5073336;28;20188;-68
2020/12/25 06:01:55;;;;;;;61.00;35.80;;;;;;;3.01;100.00;95371.50;5073660;28;20579;-69
2020/12/25 06:04:23;;;;;;;60.30;36.03;;;;;;;3.09;100.00;95375.38;5073148;28;20256;-68
2020/12/25 06:06:50;;;;;;;59.50;38.50;;;;;;;3.12;100.00;95385.19;5072953;28;20212;-68
2020/12/25 06:09:18;;;;;;;52.23;34.07;;;;;;;3.18;100.00;95376.50;5073149;28;20230;-68
2020/12/25 06:11:48;;;;;;;55.03;33.60;;;;;;;3.18;100.00;95379.06;5073352;28;20195;-67
2020/12/25 06:14:15;;;;;;;54.87;34.10;;;;;;;3.27;100.00;95389.63;5073002;28;20204;-68
2020/12/25 06:16:51;;;;;;;56.10;34.40;;;;;;;3.32;100.00;95385.28;5072871;28;20192;-68
2020/12/25 06:19:33;;;;;;;57.63;32.17;;;;;;;3.12;100.00;95398.00;5072984;28;20209;-69
2020/12/25 06:22:02;;;;;;;46.63;30.03;;;;;;;3.11;100.00;95399.03;5073276;28;20202;-68
2020/12/25 06:24:35;;;;;;;49.73;29.27;;;;;;;3.15;100.00;95410.34;5072608;28;20194;-68
2020/12/25 06:27:02;;;;;;;44.07;27.00;;;;;;;3.12;100.00;95423.69;5072793;28;20258;-68
2020/12/25 06:29:29;;;;;;;40.50;24.43;;;;;;;2.99;100.00;95413.81;5072412;28;20589;-68
2020/12/25 06:31:57;;;;;;;46.13;26.73;;;;;;;2.98;100.00;95420.00;5072417;28;20254;-68
2020/12/25 06:34:42;;;;;;;46.07;27.63;;;;;;;3.08;100.00;95424.44;5072564;28;20200;-69
2020/12/25 06:37:12;;;;;;;52.83;29.23;;;;;;;3.16;100.00;95429.09;5072545;28;20220;-69
2020/12/25 06:39:39;;;;;;;51.47;28.10;;;;;;;3.19;100.00;95429.34;5072796;28;20199;-70
2020/12/25 06:42:06;;;;;;;41.10;24.83;;;;;;;3.31;100.00;95417.09;5072377;28;20197;-68
2020/12/25 06:44:35;;;;;;;39.97;25.30;;;;;;;3.29;100.00;95426.84;5072098;28;20227;-69
2020/12/25 06:47:03;;;;;;;37.27;23.30;;;;;;;3.29;100.00;95426.84;5070976;28;20198;-68
2020/12/25 06:49:36;;;;;;;59.67;35.47;;;;;;;3.27;100.00;95423.78;5072197;28;20718;-67
2020/12/25 06:52:03;;;;;;;62.33;35.13;;;;;;;3.36;100.00;95419.72;5072350;28;20204;-69
2020/12/25 06:54:41;;;;;;;84.10;44.57;;;;;;;3.46;100.00;95424.88;5072057;28;20193;-68
2020/12/25 06:57:11;;;;;;;97.77;50.13;;;;;;;3.54;100.00;95413.34;5072021;28;20224;-69
2020/12/25 06:59:41;;;;;;;136.03;64.97;;;;;;;3.59;100.00;95412.59;5071887;28;20188;-70
2020/12/25 07:02:12;;;;;;;122.40;61.80;;;;;;;3.70;100.00;95422.69;5072294;28;20196;-69
2020/12/25 07:04:39;;;;;;;114.17;60.60;;;;;;;3.65;100.00;95420.09;5071865;28;20681;-69
2020/12/25 07:07:09;;;;;;;89.50;52.80;;;;;;;3.81;100.00;95420.91;5071749;28;20196;-69
2020/12/25 07:09:37;;;;;;;97.83;53.50;;;;;;;3.75;100.00;95421.91;5071571;28;20235;-70
2020/12/25 07:12:06;;;;;;;95.10;49.90;;;;;;;3.77;100.00;95410.38;5071926;28;20235;-68
2020/12/25 07:14:33;;;;;;;102.67;52.03;;;;;;;3.86;100.00;95400.38;5071675;28;20207;-69
2020/12/25 07:17:00;;;;;;;119.63;57.20;;;;;;;3.99;100.00;95394.75;5071539;28;20294;-70
2020/12/25 07:19:26;;;;;;;135.17;65.77;;;;;;;3.96;100.00;95397.84;5071668;28;20192;-69
2020/12/25 07:21:57;;;;;;;178.97;80.23;;;;;;;3.93;100.00;95400.94;5071631;28;20196;-70
2020/12/25 07:24:24;;;;;;;124.57;61.63;;;;;;;4.21;100.00;95413.31;5071549;28;20199;-69
2020/12/25 07:26:54;;;;;;;89.47;45.87;;;;;;;4.31;100.00;95408.19;5071349;28;20683;-70
2020/12/25 07:29:21;;;;;;;85.03;43.23;;;;;;;4.38;100.00;95404.59;5071338;28;20231;-70
2020/12/25 07:31:49;;;;;;;89.27;47.90;;;;;;;4.47;100.00;95408.22;5071220;28;20617;-69
2020/12/25 07:34:21;;;;;;;98.07;49.13;;;;;;;4.53;100.00;95407.19;5071229;28;20667;-70
2020/12/25 07:36:49;;;;;;;97.73;50.80;;;;;;;4.58;100.00;95412.34;5071361;28;20213;-70
2020/12/25 07:39:17;;;;;;;90.77;49.50;;;;;;;4.75;100.00;95421.34;5071329;28;20197;-68
2020/12/25 07:41:45;;;;;;;96.40;49.50;;;;;;;4.71;100.00;95414.38;5071279;28;20188;-71
2020/12/25 07:44:12;;;;;;;86.60;47.47;;;;;;;4.88;100.00;95419.28;5070916;28;20235;-70
2020/12/25 07:46:39;;;;;;;80.27;43.33;;;;;;;5.02;100.00;95415.16;5070832;28;20210;-70
2020/12/25 07:49:07;;;;;;;63.20;37.90;;;;;;;4.71;100.00;95422.88;5070785;28;20804;-70
2020/12/25 07:51:35;;;;;;;63.80;37.20;;;;;;;4.75;100.00;95420.56;5070862;28;20591;-70
2020/12/25 07:54:04;;;;;;;58.87;35.00;;;;;;;4.99;100.00;95418.22;5071239;28;20193;-70
2020/12/25 07:56:33;;;;;;;70.20;39.17;;;;;;;4.96;100.00;95419.53;5070907;28;20197;-70
2020/12/25 07:59:00;;;;;;;66.03;38.43;;;;;;;5.09;100.00;95426.72;5070873;28;20220;-70
2020/12/25 08:01:29;;;;;;;55.97;33.13;;;;;;;5.20;100.00;95427.47;5070671;28;20208;-70
2020/12/25 08:03:58;;;;;;;52.23;31.13;;;;;;;5.29;100.00;95417.41;5070713;28;20680;-71
2020/12/25 08:06:27;;;;;;;50.53;31.70;;;;;;;5.47;100.00;95422.78;5070750;28;20565;-70
2020/12/25 08:08:57;;;;;;;41.70;25.30;;;;;;;5.55;100.00;95418.88;5070187;28;20232;-71
2020/12/25 08:11:26;;;;;;;35.77;23.50;;;;;;;5.77;100.00;95427.06;5070317;28;20207;-70
2020/12/25 08:13:56;;;;;;;41.83;25.17;;;;;;;5.99;100.00;95432.66;5070460;28;20203;-70
2020/12/25 08:16:23;;;;;;;37.90;23.97;;;;;;;6.05;100.00;95423.09;5070675;28;20206;-70
2020/12/25 08:18:50;;;;;;;32.57;20.77;;;;;;;6.14;99.48;95424.06;5070254;28;20200;-71
2020/12/25 08:21:18;;;;;;;34.77;21.47;;;;;;;6.22;99.04;95420.16;5070358;28;20195;-70
2020/12/25 08:23:45;;;;;;;39.17;23.00;;;;;;;6.42;98.87;95420.03;5070246;28;20260;-71
2020/12/25 08:26:14;;;;;;;38.87;22.10;;;;;;;6.59;98.32;95422.22;5070166;28;20208;-71
2020/12/25 08:28:43;;;;;;;40.00;22.37;;;;;;;6.66;97.10;95436.41;5069834;28;20228;-70
2020/12/25 08:31:18;;;;;;;33.83;21.83;;;;;;;6.81;94.50;95431.13;5070215;28;20189;-70
2020/12/25 08:33:52;;;;;;;30.37;19.60;;;;;;;6.82;95.38;95427.47;5070310;28;20272;-70
2020/12/25 08:36:19;;;;;;;39.10;24.00;;;;;;;6.79;96.53;95416.91;5070065;28;20718;-71
2020/12/25 08:38:46;;;;;;;41.70;26.33;;;;;;;6.70;95.42;95416.72;5070112;28;20197;-68
2020/12/25 08:41:13;;;;;;;43.10;27.87;;;;;;;6.70;95.07;95416.72;5070036;28;20207;-70
2020/12/25 08:43:40;;;;;;;38.33;24.60;;;;;;;6.82;95.18;95422.31;5070156;28;20232;-70
2020/12/25 08:46:07;;;;;;;37.63;24.50;;;;;;;6.87;94.47;95419.69;5070184;28;20204;-70
2020/12/25 08:48:47;;;;;;;37.50;22.97;;;;;;;6.84;94.78;95419.47;5069908;28;20241;-70
2020/12/25 08:51:15;;;;;;;41.77;24.50;;;;;;;6.89;94.57;95425.34;5070101;28;20194;-71
2020/12/25 08:53:51;;;;;;;34.93;23.40;;;;;;;6.92;94.57;95419.63;5070384;28;20642;-71
2020/12/25 08:56:19;;;;;;;43.27;24.93;;;;;;;7.01;94.39;95414.69;5070350;28;20203;-71
2020/12/25 08:58:56;;;;;;;40.03;24.93;;;;;;;7.03;94.06;95404.81;5069970;28;20626;-71
2020/12/25 09:01:24;;;;;;;37.77;24.20;;;;;;;6.96;93.82;95401.81;5069910;28;20291;-71
2020/12/25 09:03:52;;;;;;;33.47;20.03;;;;;;;6.95;94.73;95399.47;5069784;28;20196;-71
2020/12/25 09:06:18;;;;;;;32.83;21.90;;;;;;;6.95;95.17;95400.25;5069659;28;20201;-71
2020/12/25 09:08:45;;;;;;;41.27;26.63;;;;;;;6.95;96.28;95400.25;5071314;28;20228;-69
2020/12/25 09:11:13;;;;;;;42.40;26.73;;;;;;;7.10;97.25;95399.34;5076558;28;20195;-70
2020/12/25 09:13:40;;;;;;;31.03;20.20;;;;;;;7.30;96.45;95397.34;5076502;28;20188;-71
2020/12/25 09:16:08;;;;;;;44.97;27.67;;;;;;;7.37;96.22;95381.50;5076419;28;20196;-71
2020/12/25 09:18:36;;;;;;;45.17;25.97;;;;;;;7.38;95.54;95379.66;5076188;28;20811;-72
2020/12/25 09:21:04;;;;;;;42.30;26.10;;;;;;;7.47;95.97;95372.88;5076329;28;20202;-70
2020/12/25 09:23:31;;;;;;;50.67;32.10;;;;;;;7.57;96.06;95368.31;5076622;28;20203;-72
2020/12/25 09:25:58;;;;;;;33.30;17.90;;;;;;;7.64;95.46;95370.59;5076493;28;20195;-70
2020/12/25 09:28:25;;;;;;;40.63;19.33;;;;;;;7.71;95.70;95361.44;5076438;28;20238;-69
2020/12/25 09:30:52;;;;;;;61.77;38.10;;;;;;;7.83;92.71;95363.63;5076348;28;20200;-70
2020/12/25 09:33:19;;;;;;;60.43;33.53;;;;;;;7.88;92.39;95355.78;5075976;28;20192;-70
2020/12/25 09:35:46;;;;;;;57.37;35.20;;;;;;;7.93;93.20;95357.53;5076492;28;20729;-70
2020/12/25 09:38:14;;;;;;;34.40;22.43;;;;;;;7.96;92.69;95357.78;5076452;28;20208;-70
2020/12/25 09:40:41;;;;;;;37.63;23.70;;;;;;;8.01;91.60;95355.13;5076371;28;20578;-70
2020/12/25 09:43:08;;;;;;;54.37;27.97;;;;;;;7.99;90.52;95349.44;5076022;28;20699;-69
2020/12/25 09:45:35;;;;;;;35.50;20.33;;;;;;;8.01;89.86;95349.94;5076178;28;20594;-70
2020/12/25 09:48:02;;;;;;;34.70;21.60;;;;;;;8.04;89.99;95343.41;5075948;28;20188;-70
2020/12/25 09:50:29;;;;;;;33.23;21.10;;;;;;;8.00;90.89;95334.69;5076044;28;20619;-69
2020/12/25 09:52:55;;;;;;;33.37;21.53;;;;;;;8.12;90.77;95340.19;5076624;28;20203;-70
2020/12/25 09:55:24;;;;;;;34.07;21.30;;;;;;;8.25;89.74;95325.78;5075952;28;20198;-71
2020/12/25 09:57:51;;;;;;;39.80;21.87;;;;;;;8.30;89.40;95328.31;5075989;28;20188;-69
2020/12/25 10:00:17;;;;;;;39.83;22.87;;;;;;;8.34;88.70;95324.13;5075976;28;20209;-71
2020/12/25 10:02:44;;;;;;;38.30;21.20;;;;;;;8.39;88.12;95317.03;5076111;28;20601;-69
2020/12/25 10:05:12;;;;;;;29.17;19.23;;;;;;;8.42;88.04;95319.06;5076073;28;20204;-70
2020/12/25 10:07:40;;;;;;;35.77;20.20;;;;;;;8.48;88.75;95311.97;5075824;28;20192;-70
2020/12/25 10:10:07;;;;;;;26.27;17.50;;;;;;;8.59;88.47;95293.41;5075878;28;20616;-70
2020/12/25 10:12:35;;;;;;;28.60;18.77;;;;;;;8.63;87.30;95301.38;5076286;28;20249;-69
2020/12/25 10:15:03;;;;;;;34.60;22.37;;;;;;;8.64;87.86;95290.72;5076141;28;20192;-70
2020/12/25 10:17:30;;;;;;;33.80;22.47;;;;;;;8.58;87.84;95291.88;5075658;28;20601;-70
2020/12/25 10:19:57;;;;;;;41.77;23.13;;;;;;;8.59;88.24;95277.88;5074926;28;20800;-71
2020/12/25 10:22:23;;;;;;;38.03;22.93;;;;;;;8.70;87.50;95278.47;5072882;28;20197;-70
2020/12/25 10:24:50;;;;;;;35.07;21.33;;;;;;;8.69;87.31;95274.34;5072489;28;20690;-70
2020/12/25 10:27:17;;;;;;;37.57;23.20;;;;;;;8.82;87.15;95276.16;5072629;28;20195;-70
2020/12/25 10:29:45;;;;;;;35.07;22.33;;;;;;;8.98;87.49;95268.88;5072508;28;20722;-70
2020/12/25 10:32:12;;;;;;;62.30;37.70;;;;;;;8.93;88.01;95267.16;5072683;28;20197;-70
2020/12/25 10:34:38;;;;;;;56.60;33.50;;;;;;;9.01;88.83;95260.53;5072475;28;20249;-70
2020/12/25 10:37:05;;;;;;;74.60;45.93;;;;;;;9.24;87.40;95256.97;5072595;28;20220;-70
2020/12/25 10:39:32;;;;;;;62.30;39.33;;;;;;;9.31;86.48;95267.72;5072664;28;20192;-70
2020/12/25 10:41:59;;;;;;;30.30;18.40;;;;;;;9.55;83.73;95258.94;5072521;28;20585;-70
2020/12/25 10:44:25;;;;;;;60.60;37.93;;;;;;;9.47;85.44;95255.97;5072264;28;20235;-70
2020/12/25 10:46:59;;;;;;;57.47;35.13;;;;;;;9.42;86.25;95258.66;5072682;28;20569;-71
2020/12/25 10:49:26;;;;;;;23.67;16.60;;;;;;;9.47;85.96;95250.78;5072472;28;20766;-71
2020/12/25 10:51:53;;;;;;;21.87;15.00;;;;;;;9.65;86.38;95237.97;5072122;28;20195;-71
2020/12/25 10:54:19;;;;;;;20.63;15.03;;;;;;;9.81;86.08;95244.34;5072074;28;20196;-71
2020/12/25 10:56:46;;;;;;;21.57;15.23;;;;;;;9.87;85.86;95237.97;5072062;28;20195;-71
2020/12/25 10:59:13;;;;;;;25.97;16.20;;;;;;;10.04;82.80;95232.91;5072011;28;20253;-72
2020/12/25 11:01:40;;;;;;;23.67;16.70;;;;;;;10.04;82.85;95224.34;5072113;28;20257;-72
2020/12/25 11:04:08;;;;;;;25.70;16.90;;;;;;;9.97;82.37;95221.41;5072009;28;20192;-69
2020/12/25 11:06:36;;;;;;;33.93;20.43;;;;;;;9.94;84.12;95217.56;5072230;28;20196;-71
2020/12/25 11:09:04;;;;;;;49.90;28.60;;;;;;;9.87;84.78;95217.22;5071626;28;20710;-71
2020/12/25 11:11:32;;;;;;;45.53;25.00;;;;;;;10.02;82.26;95214.25;5071789;28;20200;-72
2020/12/25 11:13:59;;;;;;;35.10;19.70;;;;;;;10.06;82.02;95211.84;5071646;28;20204;-72
2020/12/25 11:16:28;;;;;;;52.77;33.53;;;;;;;9.96;83.07;95212.88;5071835;28;20196;-73
2020/12/25 11:18:56;;;;;;;46.27;26.13;;;;;;;10.08;82.02;95207.88;5071625;28;20204;-72
2020/12/25 11:21:25;;;;;;;94.40;46.63;;;;;;;10.20;83.44;95205.56;5071570;28;20275;-72